createdAt,value
2023-02-19T00:01:46.124Z,81.08
2023-02-19T00:04:32.192Z,80.98
2023-02-19T00:07:17.464Z,81.88
2023-02-19T00:10:03.200Z,81.17
2023-02-19T00:12:48.531Z,81.59
2023-02-19T00:15:34.100Z,81.73
2023-02-19T00:18:19.250Z,81.45
2023-02-19T00:21:04.875Z,81.26
2023-02-19T00:23:52.398Z,81.48
2023-02-19T00:26:39.977Z,81.86
2023-02-19T00:29:25.607Z,81.46
2023-02-19T00:32:10.949Z,81.60
2023-02-19T00:34:56.192Z,81.48
2023-02-19T00:37:41.600Z,81.13
2023-02-19T00:40:27.183Z,81.34
2023-02-19T00:43:12.680Z,81.15
2023-02-19T00:45:57.926Z,80.98
2023-02-19T00:48:43.321Z,81.65
2023-02-19T00:51:34.472Z,81.65
2023-02-19T00:54:22.536Z,81.17
2023-02-19T00:57:07.913Z,81.49
2023-02-19T00:59:53.215Z,81.13
2023-02-19T01:02:38.655Z,81.25
2023-02-19T01:05:24.085Z,81.10
2023-02-19T01:08:09.539Z,80.80
2023-02-19T01:10:55.004Z,80.65
2023-02-19T01:13:41.628Z,80.53
2023-02-19T01:16:27.857Z,80.93
2023-02-19T01:19:13.788Z,80.62
2023-02-19T01:21:59.342Z,80.46
2023-02-19T01:24:44.758Z,80.10
2023-02-19T01:27:30.220Z,80.33
2023-02-19T01:30:15.588Z,80.34
2023-02-19T01:33:01.070Z,79.79
2023-02-19T01:35:47.058Z,80.28
2023-02-19T01:38:32.631Z,79.59
2023-02-19T01:41:24.263Z,79.32
2023-02-19T01:44:15.744Z,79.58
2023-02-19T01:47:01.562Z,79.75
2023-02-19T01:49:55.867Z,79.90
2023-02-19T01:52:41.749Z,79.74
2023-02-19T01:55:27.212Z,79.91
2023-02-19T01:58:12.836Z,79.62
2023-02-19T02:01:01.201Z,79.80
2023-02-19T02:03:49.514Z,79.73
2023-02-19T02:06:57.668Z,78.76
2023-02-19T02:10:01.738Z,78.81
2023-02-19T02:12:48.734Z,79.23
2023-02-19T02:15:51.695Z,78.77
2023-02-19T02:18:54.052Z,79.28
2023-02-19T02:22:07.298Z,78.71
2023-02-19T02:25:01.913Z,78.85
2023-02-19T02:28:09.318Z,78.68
2023-02-19T02:30:59.498Z,79.12
2023-02-19T02:34:01.372Z,79.36
2023-02-19T02:36:52.919Z,78.84
2023-02-19T02:39:40.374Z,79.34
2023-02-19T02:42:28.509Z,79.35
2023-02-19T02:45:35.825Z,79.37
2023-02-19T02:48:56.861Z,79.96
2023-02-19T02:51:49.390Z,80.19
2023-02-19T02:54:57.976Z,80.28
2023-02-19T02:57:43.454Z,80.93
2023-02-19T03:00:49.661Z,80.41
2023-02-19T03:03:38.520Z,81.06
2023-02-19T03:06:29.288Z,81.25
2023-02-19T03:09:22.388Z,81.37
2023-02-19T03:12:34.068Z,80.96
2023-02-19T03:15:39.709Z,81.56
2023-02-19T03:18:48.290Z,81.82
2023-02-19T03:21:38.359Z,81.90
2023-02-19T03:24:56.415Z,82.31
2023-02-19T03:27:44.685Z,81.99
2023-02-19T03:30:36.222Z,81.68
2023-02-19T03:33:26.481Z,83.02
2023-02-19T03:36:15.699Z,82.13
2023-02-19T03:39:07.441Z,82.81
2023-02-19T03:42:05.977Z,83.49
2023-02-19T03:45:22.037Z,83.13
2023-02-19T03:48:25.287Z,84.68
2023-02-19T03:51:26.052Z,84.30
2023-02-19T03:54:15.459Z,84.82
2023-02-19T03:57:11.711Z,83.72
2023-02-19T04:00:11.858Z,84.08
2023-02-19T04:03:20.945Z,85.16
2023-02-19T04:06:13.991Z,85.64
2023-02-19T04:09:03.282Z,86.25
2023-02-19T04:11:51.644Z,86.31
2023-02-19T04:15:04.318Z,86.30
2023-02-19T04:18:03.257Z,86.52
2023-02-19T04:20:49.006Z,86.23
2023-02-19T04:23:39.869Z,86.30
2023-02-19T04:26:25.344Z,86.57
2023-02-19T04:29:10.760Z,86.12
2023-02-19T04:31:56.633Z,86.32
2023-02-19T04:34:42.365Z,85.86
2023-02-19T04:37:27.662Z,86.17
2023-02-19T04:40:13.023Z,86.41
2023-02-19T04:42:58.442Z,86.27
2023-02-19T04:45:43.727Z,86.43
2023-02-19T04:48:29.376Z,86.40
2023-02-19T04:51:16.657Z,86.89
2023-02-19T04:54:02.171Z,86.37
2023-02-19T04:56:47.870Z,86.38
2023-02-19T04:59:33.291Z,86.49
2023-02-19T05:02:18.915Z,87.10
2023-02-19T05:05:04.278Z,87.05
2023-02-19T05:07:49.672Z,86.53
2023-02-19T05:10:35.212Z,86.78
2023-02-19T05:13:20.526Z,86.95
2023-02-19T05:16:13.776Z,86.29
2023-02-19T05:18:59.773Z,86.01
2023-02-19T05:21:44.985Z,86.22
2023-02-19T05:24:31.582Z,85.51
2023-02-19T05:27:17.239Z,85.98
2023-02-19T05:30:02.686Z,85.61
2023-02-19T05:32:47.892Z,85.18
2023-02-19T05:35:33.196Z,85.74
2023-02-19T05:38:19.610Z,84.90
2023-02-19T05:41:17.004Z,85.27
2023-02-19T05:44:02.405Z,85.32
2023-02-19T05:46:47.891Z,85.88
2023-02-19T05:49:33.089Z,85.45
2023-02-19T05:52:18.523Z,85.55
2023-02-19T05:55:03.913Z,85.68
2023-02-19T05:57:49.221Z,84.94
2023-02-19T06:00:34.876Z,85.43
2023-02-19T06:03:20.856Z,85.66
2023-02-19T06:06:06.518Z,85.10
2023-02-19T06:08:52.043Z,85.08
2023-02-19T06:11:38.096Z,85.02
2023-02-19T06:14:23.505Z,84.90
2023-02-19T06:17:08.896Z,84.95
2023-02-19T06:19:54.380Z,85.23
2023-02-19T06:22:39.573Z,85.39
2023-02-19T06:25:25.093Z,85.80
2023-02-19T06:28:10.624Z,85.14
2023-02-19T06:30:58.013Z,85.88
2023-02-19T06:33:43.738Z,85.88
2023-02-19T06:36:29.048Z,85.49
2023-02-19T06:39:14.424Z,86.25
2023-02-19T06:42:00.122Z,85.92
2023-02-19T06:44:45.421Z,85.13
2023-02-19T06:47:32.355Z,85.08
2023-02-19T06:50:17.613Z,85.33
2023-02-19T06:53:03.002Z,85.10
2023-02-19T06:56:22.679Z,85.00
2023-02-19T06:59:12.140Z,84.90
2023-02-19T07:01:57.665Z,84.60
2023-02-19T07:04:43.030Z,84.32
2023-02-19T07:07:28.335Z,83.67
2023-02-19T07:10:13.781Z,84.42
2023-02-19T07:12:59.033Z,83.66
2023-02-19T07:15:44.341Z,83.28
2023-02-19T07:18:30.227Z,83.01
2023-02-19T07:21:16.864Z,82.76
2023-02-19T07:24:02.496Z,83.11
2023-02-19T07:26:47.882Z,83.34
2023-02-19T07:29:33.136Z,83.65
2023-02-19T07:32:18.637Z,83.07
2023-02-19T07:35:04.022Z,83.87
2023-02-19T07:37:49.585Z,83.83
2023-02-19T07:40:35.864Z,83.82
2023-02-19T07:43:22.208Z,83.62
2023-02-19T07:46:13.672Z,83.95
2023-02-19T07:49:00.321Z,83.69
2023-02-19T07:51:45.784Z,82.98
2023-02-19T07:54:31.433Z,83.21
2023-02-19T07:57:16.940Z,83.55
2023-02-19T08:00:02.591Z,83.56
2023-02-19T08:03:00.641Z,83.13
2023-02-19T08:05:46.665Z,83.72
2023-02-19T08:08:32.311Z,83.55
2023-02-19T08:11:36.359Z,83.35
2023-02-19T08:14:28.716Z,82.62
2023-02-19T08:17:14.345Z,82.21
2023-02-19T08:19:59.626Z,82.27
2023-02-19T08:22:44.865Z,81.28
2023-02-19T08:25:30.867Z,81.69
2023-02-19T08:28:17.526Z,81.15
2023-02-19T08:31:05.901Z,80.51
2023-02-19T08:33:51.483Z,80.34
2023-02-19T08:36:38.187Z,81.02
2023-02-19T08:39:23.926Z,80.70
2023-02-19T08:42:09.312Z,81.14
2023-02-19T08:44:54.632Z,80.76
2023-02-19T08:47:39.993Z,80.20
2023-02-19T08:50:26.104Z,80.11
2023-02-19T08:53:11.647Z,79.96
2023-02-19T08:55:57.033Z,80.24
2023-02-19T08:58:42.721Z,80.00
2023-02-19T09:01:28.331Z,79.33
2023-02-19T09:04:14.082Z,79.00
2023-02-19T09:06:59.557Z,78.86
2023-02-19T09:09:45.026Z,78.47
2023-02-19T09:12:30.695Z,78.27
2023-02-19T09:15:16.315Z,78.34
2023-02-19T09:18:01.776Z,78.54
2023-02-19T09:20:46.964Z,78.63
2023-02-19T09:23:34.492Z,77.71
2023-02-19T09:26:19.959Z,77.94
2023-02-19T09:29:05.484Z,77.84
2023-02-19T09:31:50.828Z,77.84
2023-02-19T09:34:36.303Z,77.92
2023-02-19T09:37:28.726Z,77.79
2023-02-19T09:40:15.366Z,78.01
2023-02-19T09:43:02.493Z,78.99
2023-02-19T09:45:50.487Z,79.16
2023-02-19T09:48:35.961Z,79.18
2023-02-19T09:51:22.636Z,79.75
2023-02-19T09:54:15.024Z,79.55
2023-02-19T09:57:02.522Z,79.46
2023-02-19T10:00:11.598Z,80.23
2023-02-19T10:03:05.913Z,81.11
2023-02-19T10:05:53.701Z,81.43
2023-02-19T10:08:39.916Z,80.95
2023-02-19T10:11:26.263Z,81.92
2023-02-19T10:14:20.025Z,82.05
2023-02-19T10:17:07.029Z,82.46
2023-02-19T10:19:53.626Z,82.91
2023-02-19T10:22:39.078Z,82.55
2023-02-19T10:25:24.507Z,81.94
2023-02-19T10:28:20.259Z,82.34
2023-02-19T10:31:16.356Z,81.47
2023-02-19T10:34:02.491Z,80.62
2023-02-19T10:36:51.040Z,81.13
2023-02-19T10:39:42.334Z,80.07
2023-02-19T10:42:28.210Z,80.67
2023-02-19T10:45:36.932Z,80.80
2023-02-19T10:48:32.348Z,80.58
2023-02-19T10:51:22.779Z,80.61
2023-02-19T10:54:31.260Z,79.60
2023-02-19T10:57:21.136Z,79.73
2023-02-19T11:00:15.782Z,78.47
2023-02-19T11:03:21.571Z,78.53
2023-02-19T11:06:10.216Z,79.19
2023-02-19T11:09:01.288Z,78.65
2023-02-19T11:11:52.160Z,78.38
2023-02-19T11:14:37.704Z,78.33
2023-02-19T11:17:29.765Z,78.48
2023-02-19T11:20:17.861Z,77.41
2023-02-19T11:23:16.486Z,78.12
2023-02-19T11:26:03.774Z,78.15
2023-02-19T11:29:00.837Z,77.50
2023-02-19T11:31:46.499Z,77.46
2023-02-19T11:34:34.948Z,75.94
2023-02-19T11:37:21.668Z,77.12
2023-02-19T11:40:12.400Z,76.41
2023-02-19T11:43:10.064Z,76.35
2023-02-19T11:46:14.137Z,76.87
2023-02-19T11:49:29.220Z,77.46
2023-02-19T11:52:37.379Z,77.52
2023-02-19T11:55:41.716Z,77.56
2023-02-19T11:58:55.544Z,79.01
2023-02-19T12:02:02.109Z,78.90
2023-02-19T12:05:12.716Z,79.39
2023-02-19T12:08:16.989Z,80.41
2023-02-19T12:11:21.275Z,80.22
2023-02-19T12:14:43.836Z,80.62
2023-02-19T12:17:57.850Z,81.42
2023-02-19T12:21:11.341Z,82.16
2023-02-19T12:24:27.888Z,82.74
2023-02-19T12:27:37.670Z,84.10
2023-02-19T12:30:58.538Z,84.30
2023-02-19T12:34:07.655Z,84.38
2023-02-19T12:37:11.003Z,85.04
2023-02-19T12:40:02.408Z,84.54
2023-02-19T12:43:23.661Z,83.97
2023-02-19T12:46:26.136Z,83.66
2023-02-19T12:49:33.395Z,84.34
2023-02-19T12:52:34.513Z,83.70
2023-02-19T12:55:29.994Z,83.97
2023-02-19T12:58:40.540Z,83.50
2023-02-19T13:01:35.392Z,83.76
2023-02-19T13:04:43.216Z,84.36
2023-02-19T13:07:44.756Z,85.67
2023-02-19T13:10:42.909Z,86.43
2023-02-19T13:13:34.594Z,87.50
2023-02-19T13:16:21.908Z,87.34
2023-02-19T13:19:07.496Z,87.88
2023-02-19T13:22:23.983Z,88.33
2023-02-19T13:25:12.163Z,88.63
2023-02-19T13:28:09.301Z,88.17
2023-02-19T13:31:20.194Z,87.85
2023-02-19T13:34:16.386Z,86.99
2023-02-19T13:37:03.726Z,86.99
2023-02-19T13:39:52.536Z,86.84
2023-02-19T13:42:38.809Z,87.07
2023-02-19T13:45:34.161Z,87.38
2023-02-19T13:48:25.872Z,87.47
2023-02-19T13:51:23.476Z,87.97
2023-02-19T13:54:19.941Z,88.21
2023-02-19T13:57:23.691Z,88.64
2023-02-19T14:00:49.472Z,89.58
2023-02-19T14:03:54.227Z,89.81
2023-02-19T14:07:04.551Z,89.93
2023-02-19T14:09:50.099Z,90.07
2023-02-19T14:12:37.599Z,90.23
2023-02-19T14:15:43.873Z,89.44
2023-02-19T14:18:47.821Z,89.76
2023-02-19T14:21:38.859Z,89.30
2023-02-19T14:24:25.810Z,88.86
2023-02-19T14:27:11.303Z,89.35
2023-02-19T14:29:58.527Z,89.23
2023-02-19T14:32:47.418Z,88.78
2023-02-19T14:35:41.504Z,89.03
2023-02-19T14:38:37.758Z,88.63
2023-02-19T14:41:24.966Z,89.00
2023-02-19T14:44:25.063Z,89.22
2023-02-19T14:47:17.050Z,89.03
2023-02-19T14:50:09.042Z,89.39
2023-02-19T14:52:59.524Z,89.20
2023-02-19T14:55:46.570Z,89.72
2023-02-19T14:58:33.719Z,89.76
2023-02-19T15:01:27.250Z,89.77
2023-02-19T15:04:29.111Z,89.82
2023-02-19T15:07:20.628Z,89.30
2023-02-19T15:10:07.743Z,89.29
2023-02-19T15:13:05.624Z,89.15
2023-02-19T15:15:51.437Z,89.08
2023-02-19T15:18:38.043Z,89.13
2023-02-19T15:21:27.210Z,88.55
2023-02-19T15:24:15.443Z,87.81
2023-02-19T15:27:01.249Z,87.75
2023-02-19T15:29:48.296Z,87.66
2023-02-19T15:32:33.986Z,87.77
2023-02-19T15:35:21.431Z,87.62
2023-02-19T15:38:13.559Z,87.04
2023-02-19T15:40:59.721Z,87.28
2023-02-19T15:43:51.293Z,86.86
2023-02-19T15:46:38.148Z,86.69
2023-02-19T15:49:31.158Z,86.58
2023-02-19T15:52:32.733Z,86.62
2023-02-19T15:55:27.632Z,86.58
2023-02-19T15:58:13.087Z,86.10
2023-02-19T16:00:59.281Z,86.60
2023-02-19T16:03:44.844Z,86.69
2023-02-19T16:06:30.648Z,86.21
2023-02-19T16:09:37.915Z,86.41
2023-02-19T16:12:25.123Z,86.17
2023-02-19T16:15:14.299Z,86.15
2023-02-19T16:17:59.914Z,86.24
2023-02-19T16:20:47.977Z,85.90
2023-02-19T16:23:33.660Z,85.61
2023-02-19T16:26:19.281Z,85.65
2023-02-19T16:29:04.776Z,85.67
2023-02-19T16:31:53.389Z,85.79
2023-02-19T16:34:46.890Z,85.57
2023-02-19T16:37:33.468Z,85.65
2023-02-19T16:40:19.203Z,85.19
2023-02-19T16:43:04.439Z,85.06
2023-02-19T16:45:50.005Z,85.50
2023-02-19T16:48:35.662Z,85.37
2023-02-19T16:51:26.557Z,85.34
2023-02-19T16:54:13.139Z,85.39
2023-02-19T16:56:58.598Z,85.57
2023-02-19T16:59:43.994Z,85.63
2023-02-19T17:02:29.843Z,85.91
2023-02-19T17:05:17.072Z,85.81
2023-02-19T17:08:21.436Z,86.46
2023-02-19T17:11:12.635Z,86.68
2023-02-19T17:13:58.498Z,86.88
2023-02-19T17:16:43.975Z,87.17
2023-02-19T17:19:29.196Z,87.46
2023-02-19T17:22:16.988Z,87.80
2023-02-19T17:25:02.932Z,88.32
2023-02-19T17:27:48.395Z,88.14
2023-02-19T17:30:34.127Z,87.87
2023-02-19T17:33:19.479Z,87.75
2023-02-19T17:36:05.320Z,88.45
2023-02-19T17:38:50.691Z,88.22
2023-02-19T17:41:36.500Z,88.23
2023-02-19T17:44:21.668Z,88.01
2023-02-19T17:47:07.021Z,88.14
2023-02-19T17:49:52.614Z,88.09
2023-02-19T17:52:38.121Z,88.27
2023-02-19T17:55:25.344Z,88.03
2023-02-19T17:58:10.847Z,88.16
2023-02-19T18:00:56.515Z,88.14
2023-02-19T18:03:42.466Z,88.17
2023-02-19T18:06:28.236Z,88.13
2023-02-19T18:09:15.348Z,87.94
2023-02-19T18:12:00.586Z,87.96
2023-02-19T18:14:46.816Z,87.93
2023-02-19T18:17:32.582Z,88.12
2023-02-19T18:20:23.928Z,88.44
2023-02-19T18:23:09.429Z,88.08
2023-02-19T18:25:54.899Z,88.13
2023-02-19T18:28:40.296Z,87.90
2023-02-19T18:31:26.025Z,88.20
2023-02-19T18:34:18.355Z,88.21
2023-02-19T18:37:04.032Z,87.80
2023-02-19T18:39:49.695Z,87.97
2023-02-19T18:42:35.503Z,88.17
2023-02-19T18:45:21.102Z,87.98
2023-02-19T18:48:06.979Z,88.07
2023-02-19T18:50:52.369Z,88.32
2023-02-19T18:53:38.077Z,88.04
2023-02-19T18:56:23.766Z,87.93
2023-02-19T18:59:09.699Z,88.45
2023-02-19T19:01:55.007Z,88.20
2023-02-19T19:04:41.467Z,88.50
2023-02-19T19:07:26.976Z,88.56
2023-02-19T19:10:12.444Z,88.24
2023-02-19T19:12:58.564Z,88.75
2023-02-19T19:15:49.271Z,88.84
2023-02-19T19:18:38.170Z,88.49
2023-02-19T19:21:24.105Z,88.60
2023-02-19T19:24:09.960Z,88.46
2023-02-19T19:26:55.763Z,88.62
2023-02-19T19:29:41.501Z,88.32
2023-02-19T19:32:26.868Z,88.47
2023-02-19T19:35:12.541Z,88.47
2023-02-19T19:37:58.150Z,88.16
2023-02-19T19:40:43.603Z,88.52
2023-02-19T19:43:30.695Z,88.87
2023-02-19T19:46:20.076Z,88.37
2023-02-19T19:49:05.634Z,88.51
2023-02-19T19:51:51.109Z,88.63
2023-02-19T19:54:36.338Z,88.99
2023-02-19T19:57:21.687Z,88.85
2023-02-19T20:00:07.717Z,89.05
2023-02-19T20:02:57.754Z,88.75
2023-02-19T20:05:45.858Z,88.58
2023-02-19T20:08:31.184Z,89.31
2023-02-19T20:11:16.479Z,88.82
2023-02-19T20:14:01.871Z,89.44
2023-02-19T20:16:47.724Z,89.03
2023-02-19T20:19:33.341Z,89.30
2023-02-19T20:22:19.564Z,89.39
2023-02-19T20:25:05.266Z,89.24
2023-02-19T20:27:52.386Z,89.44
2023-02-19T20:30:37.915Z,89.54
2023-02-19T20:33:23.716Z,89.55
2023-02-19T20:36:09.408Z,89.23
2023-02-19T20:38:56.164Z,89.74
2023-02-19T20:41:49.022Z,90.04
2023-02-19T20:44:34.952Z,89.61
2023-02-19T20:47:20.370Z,90.12
2023-02-19T20:50:07.062Z,89.98
2023-02-19T20:52:55.809Z,90.41
2023-02-19T20:55:41.606Z,89.74
2023-02-19T20:58:27.132Z,90.10
2023-02-19T21:01:12.552Z,90.09
2023-02-19T21:03:58.143Z,90.00
2023-02-19T21:06:43.709Z,90.11
2023-02-19T21:09:29.028Z,89.89
2023-02-19T21:12:14.438Z,89.71
2023-02-19T21:14:59.776Z,89.97
2023-02-19T21:17:46.644Z,89.98
2023-02-19T21:20:32.419Z,89.76
2023-02-19T21:23:18.330Z,89.61
2023-02-19T21:26:04.668Z,89.92
2023-02-19T21:28:54.010Z,89.61
2023-02-19T21:31:42.671Z,89.96
2023-02-19T21:34:29.539Z,89.72
2023-02-19T21:37:15.171Z,89.58
2023-02-19T21:40:00.854Z,89.74
2023-02-19T21:42:46.305Z,89.68
2023-02-19T21:45:31.739Z,89.83
2023-02-19T21:48:17.103Z,89.59
2023-02-19T21:51:03.956Z,89.54
2023-02-19T21:53:49.436Z,89.65
2023-02-19T21:56:36.521Z,89.89
2023-02-19T21:59:22.704Z,89.36
2023-02-19T22:02:09.456Z,89.64
2023-02-19T22:04:55.184Z,89.81
2023-02-19T22:07:40.701Z,89.85
2023-02-19T22:10:25.994Z,89.60
2023-02-19T22:13:11.320Z,89.53
2023-02-19T22:15:56.704Z,89.29
2023-02-19T22:18:49.667Z,89.36
2023-02-19T22:21:35.494Z,88.99
2023-02-19T22:24:22.487Z,88.98
2023-02-19T22:27:08.383Z,89.27
2023-02-19T22:29:54.241Z,89.03
2023-02-19T22:32:40.750Z,88.86
2023-02-19T22:35:27.084Z,88.88
2023-02-19T22:38:12.498Z,88.99
2023-02-19T22:40:58.004Z,89.04
2023-02-19T22:43:44.250Z,88.69
2023-02-19T22:46:30.623Z,88.76
2023-02-19T22:49:16.820Z,88.98
2023-02-19T22:52:05.597Z,88.83
2023-02-19T22:54:52.514Z,88.99
2023-02-19T22:57:38.016Z,88.61
2023-02-19T23:00:23.534Z,88.82
2023-02-19T23:03:09.004Z,88.66
2023-02-19T23:05:54.402Z,88.76
2023-02-19T23:08:39.818Z,88.43
2023-02-19T23:11:31.210Z,88.72
2023-02-19T23:14:18.703Z,88.39
2023-02-19T23:17:04.524Z,89.14
2023-02-19T23:19:50.172Z,88.60
2023-02-19T23:22:36.936Z,88.88
2023-02-19T23:25:22.792Z,89.10
2023-02-19T23:28:08.214Z,89.01
2023-02-19T23:30:53.698Z,89.32
2023-02-19T23:33:39.246Z,88.85
2023-02-19T23:36:24.860Z,89.04
2023-02-19T23:39:12.012Z,89.15
2023-02-19T23:41:58.046Z,89.00
2023-02-19T23:44:46.788Z,89.05
2023-02-19T23:47:32.555Z,89.41
2023-02-19T23:50:18.228Z,89.24
2023-02-19T23:53:04.071Z,89.17
2023-02-19T23:55:49.410Z,89.49
2023-02-19T23:58:34.735Z,89.26
